Time;durP1;ratioP1;P1;durP2;ratioP2;P2;SDS_P1;SDS_P2;PMS_P1;PMS_P2;Temp;Humidity;BMP_temperature;BMP_pressure;BME280_temperature;BME280_humidity;BME280_pressure;Samples;Min_cycle;Max_cycle;Signal;HPM_P1;HPM_P2
2021/05/10 00:01:29;;;;;;;7.70;6.28;;;17.30;99.90;;;;;;4945133;28;20031;-76
2021/05/10 00:03:55;;;;;;;11.55;7.18;;;17.30;99.90;;;;;;4944249;28;20847;-75
2021/05/10 00:06:21;;;;;;;7.28;6.05;;;17.30;99.90;;;;;;4942648;28;20061;-77
2021/05/10 00:08:47;;;;;;;8.85;6.15;;;17.20;99.90;;;;;;4939462;28;20023;-74
2021/05/10 00:11:14;;;;;;;6.97;5.32;;;17.20;99.90;;;;;;4943129;28;20040;-75
2021/05/10 00:13:44;;;;;;;8.77;5.70;;;17.20;99.90;;;;;;4945832;28;20034;-77
2021/05/10 00:16:09;;;;;;;6.18;5.57;;;17.10;99.90;;;;;;4946153;28;20042;-76
2021/05/10 00:18:35;;;;;;;8.20;4.57;;;17.20;99.90;;;;;;4939347;28;21451;-76
2021/05/10 00:21:01;;;;;;;9.98;4.93;;;17.20;99.90;;;;;;4937388;28;20058;-75
2021/05/10 00:23:27;;;;;;;6.93;4.80;;;17.20;99.90;;;;;;4932194;28;20043;-76
2021/05/10 00:25:52;;;;;;;7.60;4.35;;;17.10;99.90;;;;;;4928355;28;21294;-74
2021/05/10 00:28:18;;;;;;;9.55;4.63;;;17.00;99.90;;;;;;4931901;28;20082;-75
2021/05/10 00:30:44;;;;;;;5.03;4.20;;;16.90;99.90;;;;;;4930851;28;20035;-76
2021/05/10 00:33:09;;;;;;;5.07;3.95;;;16.90;99.90;;;;;;4931071;28;20046;-75
2021/05/10 00:35:35;;;;;;;5.97;4.50;;;16.90;99.90;;;;;;4931159;28;20049;-74
2021/05/10 00:38:00;;;;;;;5.55;4.32;;;16.90;99.90;;;;;;4925579;28;20111;-75
2021/05/10 00:40:30;;;;;;;7.22;4.90;;;16.90;99.90;;;;;;4928433;28;20060;-73
2021/05/10 00:42:57;;;;;;;5.95;4.22;;;16.90;99.90;;;;;;4929012;28;20499;-76
2021/05/10 00:45:23;;;;;;;7.53;4.40;;;17.00;99.90;;;;;;4930902;28;20024;-76
2021/05/10 00:47:48;;;;;;;8.13;4.28;;;17.00;99.90;;;;;;4931043;28;20024;-75
2021/05/10 00:50:15;;;;;;;6.47;4.28;;;17.00;99.90;;;;;;4934929;28;20562;-76
2021/05/10 00:52:41;;;;;;;12.65;4.80;;;17.00;99.90;;;;;;4924692;28;20031;-75
2021/05/10 00:55:10;;;;;;;5.13;4.63;;;17.00;99.90;;;;;;4929730;28;20099;-76
2021/05/10 00:58:04;;;;;;;6.30;4.75;;;17.00;99.90;;;;;;4929693;28;20036;-75
2021/05/10 01:00:36;;;;;;;8.50;3.92;;;17.00;99.90;;;;;;4926508;28;20487;-75
2021/05/10 01:03:03;;;;;;;7.00;4.05;;;16.90;99.90;;;;;;4968342;28;20051;-75
2021/05/10 01:05:29;;;;;;;6.40;4.05;;;16.90;99.90;;;;;;4939406;28;20110;-75
2021/05/10 01:07:55;;;;;;;4.25;3.78;;;16.90;99.90;;;;;;4956144;28;20026;-76
2021/05/10 01:10:25;;;;;;;8.93;4.10;;;16.90;99.90;;;;;;4930988;28;20115;-75
2021/05/10 01:12:50;;;;;;;5.70;3.80;;;16.80;99.90;;;;;;4942571;28;20488;-75
2021/05/10 01:15:19;;;;;;;6.93;4.15;;;16.80;99.90;;;;;;4932232;28;20031;-76
2021/05/10 01:17:45;;;;;;;9.15;3.90;;;16.80;99.90;;;;;;4975304;28;20031;-75
2021/05/10 01:20:15;;;;;;;5.60;3.95;;;16.90;99.90;;;;;;4928311;28;20028;-73
2021/05/10 01:22:44;;;;;;;6.50;4.35;;;16.90;99.90;;;;;;4930005;28;20051;-77
2021/05/10 01:25:19;;;;;;;7.88;3.95;;;17.00;99.90;;;;;;4978452;28;20025;-74
2021/05/10 01:27:45;;;;;;;8.18;3.85;;;17.00;99.90;;;;;;4929889;28;20028;-76
2021/05/10 01:30:21;;;;;;;7.03;3.72;;;17.10;99.90;;;;;;4929821;28;20055;-76
2021/05/10 01:32:48;;;;;;;7.57;4.18;;;17.10;99.90;;;;;;4921761;28;20097;-75
2021/05/10 01:35:16;;;;;;;5.93;3.83;;;17.10;99.90;;;;;;4930719;28;20066;-75
2021/05/10 01:37:42;;;;;;;3.53;3.22;;;17.00;99.90;;;;;;4930576;28;20032;-77
2021/05/10 01:40:09;;;;;;;7.57;3.67;;;17.10;99.90;;;;;;4931097;28;20698;-76
2021/05/10 01:42:34;;;;;;;6.32;3.20;;;17.10;99.90;;;;;;4952762;28;20029;-75
2021/05/10 01:45:00;;;;;;;7.93;3.58;;;17.10;99.90;;;;;;4977795;28;20028;-75
2021/05/10 01:47:26;;;;;;;4.18;2.90;;;17.10;99.90;;;;;;4928245;28;20020;-75
2021/05/10 01:49:52;;;;;;;4.65;3.00;;;17.10;99.90;;;;;;4929943;28;20050;-75
2021/05/10 01:52:18;;;;;;;6.38;3.67;;;17.20;99.90;;;;;;4937195;28;20039;-75
2021/05/10 01:54:50;;;;;;;6.75;3.42;;;17.30;99.90;;;;;;4938077;28;20023;-78
2021/05/10 01:57:18;;;;;;;4.47;2.90;;;17.40;99.90;;;;;;4928726;28;20094;-75
2021/05/10 01:59:44;;;;;;;3.70;3.00;;;17.50;99.90;;;;;;4934439;28;20035;-77
2021/05/10 02:02:10;;;;;;;5.45;3.65;;;17.50;99.90;;;;;;4939158;28;20032;-77
2021/05/10 02:05:10;;;;;;;4.35;3.35;;;17.60;99.90;;;;;;4940292;28;20031;-76
2021/05/10 02:07:39;;;;;;;5.95;3.45;;;17.50;99.90;;;;;;4935276;28;20057;-76
2021/05/10 02:10:15;;;;;;;6.15;3.83;;;17.50;99.90;;;;;;4931169;28;20097;-75
2021/05/10 02:12:50;;;;;;;5.82;3.95;;;17.30;99.90;;;;;;4934455;28;20035;-76
2021/05/10 02:15:19;;;;;;;7.20;3.78;;;17.20;99.90;;;;;;4933641;28;20029;-75
2021/05/10 02:17:44;;;;;;;9.98;4.28;;;17.20;99.90;;;;;;4939006;28;20030;-75
2021/05/10 02:20:10;;;;;;;6.00;3.63;;;17.10;99.90;;;;;;4933400;28;20032;-78
2021/05/10 02:22:36;;;;;;;3.90;3.50;;;17.00;99.90;;;;;;4936939;28;20123;-78
2021/05/10 02:25:03;;;;;;;10.82;3.90;;;16.90;99.90;;;;;;4936941;28;20027;-76
2021/05/10 02:27:29;;;;;;;4.63;4.00;;;17.00;99.90;;;;;;4934581;28;20365;-75
2021/05/10 02:29:54;;;;;;;8.07;3.88;;;17.10;99.90;;;;;;4934548;28;20557;-75
2021/05/10 02:32:20;;;;;;;6.65;4.05;;;17.10;99.90;;;;;;4934601;28;20024;-73
2021/05/10 02:34:47;;;;;;;5.97;3.67;;;16.90;99.90;;;;;;4933776;28;20093;-75
2021/05/10 02:37:15;;;;;;;5.28;4.22;;;16.90;99.90;;;;;;4933177;28;20024;-74
2021/05/10 02:39:47;;;;;;;7.22;4.78;;;16.80;99.90;;;;;;4935191;28;20500;-75
2021/05/10 02:42:12;;;;;;;6.07;4.10;;;16.80;99.90;;;;;;4943990;28;20055;-76
2021/05/10 02:44:40;;;;;;;6.93;4.53;;;16.90;99.90;;;;;;4939600;28;20748;-75
2021/05/10 02:47:06;;;;;;;6.50;4.30;;;16.80;99.90;;;;;;4941413;28;20100;-74
2021/05/10 02:49:31;;;;;;;6.18;4.57;;;16.90;99.90;;;;;;4938464;28;20059;-74
2021/05/10 02:51:59;;;;;;;6.90;4.22;;;16.90;99.90;;;;;;4989208;28;20331;-76
2021/05/10 02:54:24;;;;;;;10.20;4.32;;;16.90;99.90;;;;;;4979147;28;20095;-77
2021/05/10 02:56:54;;;;;;;6.07;3.88;;;17.00;99.90;;;;;;4958369;28;20039;-78
2021/05/10 02:59:21;;;;;;;8.05;3.90;;;17.10;99.90;;;;;;4957016;28;20012;-78
2021/05/10 03:01:53;;;;;;;8.23;4.68;;;17.00;99.90;;;;;;4949533;28;20051;-77
2021/05/10 03:04:20;;;;;;;5.05;4.05;;;17.00;99.90;;;;;;4956896;28;20019;-72
2021/05/10 03:06:52;;;;;;;5.65;3.92;;;16.90;99.90;;;;;;4956929;28;20024;-77
2021/05/10 03:09:20;;;;;;;5.15;3.85;;;16.80;99.90;;;;;;4957742;28;20058;-77
2021/05/10 03:11:46;;;;;;;5.20;4.45;;;16.80;99.90;;;;;;4955763;28;20035;-73
2021/05/10 03:14:26;;;;;;;6.07;4.28;;;16.80;99.90;;;;;;4942404;28;20098;-73
2021/05/10 03:16:51;;;;;;;4.90;4.40;;;16.80;99.90;;;;;;4989175;28;20100;-75
2021/05/10 03:19:20;;;;;;;9.18;4.78;;;16.80;99.90;;;;;;4925113;28;20458;-74
2021/05/10 03:21:46;;;;;;;10.10;4.15;;;16.90;99.90;;;;;;4967313;28;20567;-74
2021/05/10 03:24:12;;;;;;;3.95;3.22;;;16.80;99.90;;;;;;4932057;28;20034;-74
2021/05/10 03:26:38;;;;;;;5.78;3.90;;;16.80;99.90;;;;;;4932373;28;20032;-75
2021/05/10 03:29:07;;;;;;;6.28;3.38;;;16.70;99.90;;;;;;4937151;28;20024;-74
2021/05/10 03:31:33;;;;;;;4.95;3.38;;;16.80;99.90;;;;;;4932850;28;20036;-74
2021/05/10 03:33:59;;;;;;;9.05;3.47;;;16.80;99.90;;;;;;4932525;28;20031;-74
2021/05/10 03:36:27;;;;;;;4.47;2.70;;;17.00;99.90;;;;;;4932594;28;20105;-73
2021/05/10 03:38:54;;;;;;;2.42;2.17;;;17.00;99.90;;;;;;4937936;28;20028;-74
2021/05/10 03:41:22;;;;;;;3.25;2.38;;;17.10;99.90;;;;;;4934614;28;20591;-76
2021/05/10 03:43:48;;;;;;;4.03;2.60;;;17.20;99.90;;;;;;4935062;28;20027;-75
2021/05/10 03:46:14;;;;;;;4.63;2.05;;;17.30;99.90;;;;;;4927214;28;20036;-73
2021/05/10 03:48:41;;;;;;;5.53;2.15;;;17.30;99.90;;;;;;4931417;28;20495;-75
2021/05/10 03:51:07;;;;;;;3.13;1.90;;;17.40;99.90;;;;;;4930251;28;20052;-75
2021/05/10 03:53:33;;;;;;;3.75;2.00;;;17.50;99.90;;;;;;4928492;28;20102;-75
2021/05/10 03:56:10;;;;;;;4.70;1.73;;;17.50;99.90;;;;;;4988278;28;20036;-78
2021/05/10 03:58:41;;;;;;;4.30;2.08;;;17.60;99.90;;;;;;4956519;28;20043;-76
2021/05/10 04:01:09;;;;;;;4.88;2.03;;;17.70;99.90;;;;;;4953445;28;20099;-74
2021/05/10 04:03:41;;;;;;;3.88;1.95;;;17.80;99.90;;;;;;4940265;28;20043;-74
2021/05/10 04:09:09;;;;;;;7.75;2.15;;;17.80;99.90;;;;;;4948996;28;20055;-74
2021/05/10 04:14:20;;;;;;;4.75;2.10;;;18.00;99.90;;;;;;4944208;28;20455;-74
2021/05/10 04:16:47;;;;;;;2.88;1.63;;;18.00;99.90;;;;;;4995313;28;20024;-75
2021/05/10 04:19:13;;;;;;;4.18;1.77;;;18.00;99.90;;;;;;4930004;28;20032;-76
2021/05/10 04:21:39;;;;;;;4.97;2.10;;;18.00;99.90;;;;;;4946691;28;20134;-74
2021/05/10 04:24:07;;;;;;;3.60;2.55;;;17.90;99.90;;;;;;4941607;28;20024;-73
2021/05/10 04:26:32;;;;;;;5.63;2.47;;;17.90;99.90;;;;;;4944906;28;20047;-76
2021/05/10 04:28:58;;;;;;;6.00;2.85;;;17.80;99.90;;;;;;4938559;28;20255;-71
2021/05/10 04:31:23;;;;;;;4.93;3.75;;;17.60;99.90;;;;;;4932758;28;20028;-73
2021/05/10 04:33:49;;;;;;;7.03;3.75;;;17.00;99.90;;;;;;4932656;28;20573;-73
2021/05/10 04:36:15;;;;;;;8.52;4.55;;;16.50;99.90;;;;;;4929895;28;20035;-73
2021/05/10 04:38:43;;;;;;;7.93;5.10;;;16.20;99.90;;;;;;4931432;28;20109;-73
2021/05/10 04:41:10;;;;;;;5.25;4.72;;;16.00;99.90;;;;;;4928434;28;20122;-73
2021/05/10 04:43:36;;;;;;;11.05;5.60;;;15.90;99.90;;;;;;4927361;28;20085;-71
2021/05/10 04:46:02;;;;;;;11.02;5.90;;;15.80;99.90;;;;;;4938676;28;20031;-72
2021/05/10 04:48:28;;;;;;;7.47;5.40;;;15.90;99.90;;;;;;4973289;28;20025;-74
2021/05/10 04:50:54;;;;;;;10.45;4.80;;;15.80;99.90;;;;;;4945121;28;20040;-76
2021/05/10 04:53:20;;;;;;;8.98;4.90;;;15.80;99.90;;;;;;4943521;28;20028;-73
2021/05/10 04:55:46;;;;;;;7.13;4.50;;;15.70;99.90;;;;;;4943646;28;20028;-72
2021/05/10 04:58:12;;;;;;;5.80;4.63;;;15.60;99.90;;;;;;4940133;28;20040;-71
2021/05/10 05:00:38;;;;;;;8.25;4.60;;;15.50;99.90;;;;;;4946440;28;20032;-72
2021/05/10 05:03:04;;;;;;;5.18;4.70;;;15.50;99.90;;;;;;4932972;28;20024;-72
2021/05/10 05:05:30;;;;;;;7.18;4.38;;;15.50;99.90;;;;;;4937794;28;20043;-72
2021/05/10 05:07:56;;;;;;;6.72;4.88;;;15.40;99.90;;;;;;4970197;28;20523;-74
2021/05/10 05:10:22;;;;;;;6.65;4.95;;;15.40;99.90;;;;;;4967190;28;20092;-77
2021/05/10 05:12:51;;;;;;;6.43;5.45;;;15.50;99.90;;;;;;4927808;28;20036;-72
2021/05/10 05:15:18;;;;;;;9.77;5.82;;;15.40;99.90;;;;;;4932808;28;20517;-72
2021/05/10 05:17:44;;;;;;;9.90;5.78;;;15.40;99.90;;;;;;4921595;28;20093;-71
2021/05/10 05:20:11;;;;;;;8.63;5.32;;;15.30;99.90;;;;;;4916901;28;20036;-75
2021/05/10 05:22:36;;;;;;;8.60;5.25;;;15.30;99.90;;;;;;4922728;28;20179;-74
2021/05/10 05:25:07;;;;;;;7.72;4.68;;;15.30;99.90;;;;;;4930773;28;20094;-72
2021/05/10 05:27:34;;;;;;;8.40;3.92;;;15.30;99.90;;;;;;4924522;28;20035;-73
2021/05/10 05:30:00;;;;;;;4.30;3.45;;;15.20;99.90;;;;;;4930743;28;20023;-74
2021/05/10 05:32:25;;;;;;;6.97;3.70;;;15.10;99.90;;;;;;4924907;28;20027;-73
2021/05/10 05:34:52;;;;;;;3.72;3.30;;;15.20;99.90;;;;;;4952956;28;20463;-73
2021/05/10 05:37:18;;;;;;;6.68;3.03;;;15.20;99.90;;;;;;4926506;28;20091;-73
2021/05/10 05:39:43;;;;;;;3.53;3.20;;;15.20;99.90;;;;;;4922826;28;20138;-74
2021/05/10 05:42:09;;;;;;;2.67;2.33;;;15.20;99.90;;;;;;4923939;28;20036;-72
2021/05/10 05:44:37;;;;;;;3.58;2.47;;;15.30;99.90;;;;;;4924213;28;20818;-75
2021/05/10 05:47:05;;;;;;;4.82;2.95;;;15.20;99.90;;;;;;4928050;28;20113;-76
2021/05/10 05:49:36;;;;;;;4.18;2.78;;;15.20;99.90;;;;;;4917142;28;20024;-74
2021/05/10 05:52:05;;;;;;;4.47;2.90;;;15.20;99.90;;;;;;4917618;28;20016;-75
2021/05/10 05:54:32;;;;;;;5.47;3.00;;;15.20;99.90;;;;;;4919277;28;20028;-74
2021/05/10 05:56:58;;;;;;;3.58;2.78;;;15.20;99.90;;;;;;4931099;28;20595;-72
2021/05/10 05:59:24;;;;;;;3.15;2.47;;;15.10;99.90;;;;;;4934470;28;20127;-76
2021/05/10 06:01:50;;;;;;;4.30;3.08;;;15.10;99.90;;;;;;4921481;28;20070;-78
2021/05/10 06:04:17;;;;;;;4.18;2.63;;;15.20;99.90;;;;;;4920369;28;20038;-75
2021/05/10 06:06:43;;;;;;;4.68;2.30;;;15.10;99.90;;;;;;4917735;28;20074;-74
2021/05/10 06:09:10;;;;;;;3.45;2.83;;;15.10;99.90;;;;;;4922387;28;20028;-70
2021/05/10 06:11:36;;;;;;;3.53;2.70;;;15.20;99.90;;;;;;4927773;28;20074;-79
2021/05/10 06:14:02;;;;;;;5.40;3.38;;;15.30;99.90;;;;;;4928570;28;20031;-74
2021/05/10 06:16:29;;;;;;;4.13;2.47;;;15.30;99.90;;;;;;4934115;28;20024;-76
2021/05/10 06:18:56;;;;;;;8.82;3.10;;;15.40;99.90;;;;;;4916890;28;20028;-74
2021/05/10 06:21:22;;;;;;;3.92;2.70;;;15.50;99.90;;;;;;4924011;28;20428;-76
2021/05/10 06:23:49;;;;;;;5.15;3.35;;;15.60;99.90;;;;;;4923712;28;20067;-75
2021/05/10 06:26:15;;;;;;;4.78;3.70;;;15.60;99.90;;;;;;4925672;28;20031;-73
2021/05/10 06:28:41;;;;;;;6.85;3.45;;;15.60;99.90;;;;;;4926118;28;20058;-73
2021/05/10 06:31:10;;;;;;;5.32;3.85;;;15.70;99.90;;;;;;4929030;28;20476;-73
2021/05/10 06:33:36;;;;;;;7.38;3.72;;;15.70;99.90;;;;;;4936287;28;20259;-75
2021/05/10 06:36:02;;;;;;;4.30;3.65;;;15.70;99.90;;;;;;4947359;28;20016;-74
2021/05/10 06:38:27;;;;;;;5.93;3.70;;;15.80;99.90;;;;;;4931044;28;20546;-71
2021/05/10 06:40:53;;;;;;;5.40;3.88;;;15.80;99.90;;;;;;4934993;28;20063;-73
2021/05/10 06:43:19;;;;;;;4.18;3.67;;;15.80;99.90;;;;;;4927844;28;20042;-75
2021/05/10 06:45:44;;;;;;;5.57;3.97;;;15.70;99.90;;;;;;4948429;28;20027;-78
2021/05/10 06:48:10;;;;;;;5.10;4.20;;;15.70;99.90;;;;;;4933211;28;20099;-72
2021/05/10 06:50:36;;;;;;;9.85;4.40;;;15.60;99.90;;;;;;4927063;28;20061;-72
2021/05/10 06:53:02;;;;;;;5.95;4.50;;;15.40;99.90;;;;;;4933613;28;20681;-74
2021/05/10 06:55:28;;;;;;;6.03;4.63;;;15.30;99.90;;;;;;4929891;28;20062;-74
2021/05/10 06:57:53;;;;;;;5.95;4.70;;;15.20;99.90;;;;;;4930445;28;20070;-75
2021/05/10 07:00:19;;;;;;;5.13;4.20;;;15.20;99.90;;;;;;4951404;28;20035;-75
2021/05/10 07:02:45;;;;;;;7.13;4.38;;;15.30;99.90;;;;;;4931593;28;20028;-75
2021/05/10 07:05:11;;;;;;;6.90;4.32;;;15.40;99.90;;;;;;4918088;28;20079;-75
2021/05/10 07:07:37;;;;;;;4.75;3.78;;;15.50;99.90;;;;;;4928353;28;20040;-73
2021/05/10 07:10:04;;;;;;;5.03;4.10;;;15.50;99.90;;;;;;4929507;28;20474;-72
2021/05/10 07:12:30;;;;;;;6.85;4.43;;;15.50;99.90;;;;;;4928233;28;20038;-74
2021/05/10 07:14:55;;;;;;;6.18;4.82;;;15.60;99.90;;;;;;4917495;28;20111;-74
2021/05/10 07:17:21;;;;;;;4.75;4.35;;;15.60;99.90;;;;;;4981588;28;20038;-71
2021/05/10 07:19:47;;;;;;;7.95;4.30;;;15.60;99.90;;;;;;4930981;28;20032;-72
2021/05/10 07:22:12;;;;;;;4.88;4.38;;;15.60;99.90;;;;;;4914981;28;20031;-75
2021/05/10 07:24:38;;;;;;;6.20;4.43;;;15.60;99.90;;;;;;4927000;28;20020;-71
2021/05/10 07:27:04;;;;;;;8.07;6.82;;;15.60;99.90;;;;;;4919771;28;20077;-73
2021/05/10 07:29:30;;;;;;;8.45;6.07;;;15.50;99.90;;;;;;4921193;28;20114;-72
2021/05/10 07:31:56;;;;;;;5.00;4.60;;;15.30;99.90;;;;;;4925465;28;20602;-74
2021/05/10 07:34:22;;;;;;;4.07;3.67;;;15.10;99.90;;;;;;4924066;28;20036;-74
2021/05/10 07:36:48;;;;;;;4.07;3.70;;;14.80;99.90;;;;;;4925766;28;20606;-74
2021/05/10 07:39:14;;;;;;;3.58;3.33;;;14.60;99.90;;;;;;4917960;28;20087;-74
2021/05/10 07:41:39;;;;;;;3.25;2.95;;;14.50;99.90;;;;;;4925821;28;20078;-75
2021/05/10 07:44:05;;;;;;;4.72;2.92;;;14.40;99.90;;;;;;4925595;28;20092;-76
2021/05/10 07:46:31;;;;;;;3.58;3.28;;;14.40;99.90;;;;;;4926056;28;20091;-72
2021/05/10 07:48:57;;;;;;;3.33;3.03;;;14.50;99.90;;;;;;4928447;28;20046;-70
2021/05/10 07:51:23;;;;;;;4.10;3.40;;;14.60;99.90;;;;;;4932573;28;20558;-73
2021/05/10 07:53:49;;;;;;;5.80;3.47;;;14.60;99.90;;;;;;4931721;28;20024;-73
2021/05/10 07:56:14;;;;;;;7.10;3.15;;;14.70;99.90;;;;;;4930595;28;20044;-76
2021/05/10 07:58:44;;;;;;;4.93;2.97;;;14.90;99.90;;;;;;4944141;28;20048;-74
2021/05/10 08:01:09;;;;;;;4.35;2.85;;;15.00;99.90;;;;;;4945556;28;20033;-75
2021/05/10 08:03:35;;;;;;;3.58;2.65;;;15.00;99.90;;;;;;4928872;28;20043;-75
2021/05/10 08:06:02;;;;;;;5.38;2.95;;;15.00;99.90;;;;;;4921580;28;20054;-73
2021/05/10 08:08:28;;;;;;;2.80;2.53;;;15.10;99.90;;;;;;4919223;28;20059;-72
2021/05/10 08:10:54;;;;;;;5.28;2.50;;;15.10;99.90;;;;;;4924976;28;20241;-72
2021/05/10 08:13:20;;;;;;;3.30;2.55;;;15.10;99.90;;;;;;4928433;28;20082;-74
2021/05/10 08:15:46;;;;;;;2.85;2.40;;;15.10;99.90;;;;;;4922501;28;20035;-74
2021/05/10 08:18:13;;;;;;;8.48;2.30;;;15.10;99.90;;;;;;4921921;28;20035;-73
2021/05/10 08:20:42;;;;;;;2.92;1.95;;;15.00;99.90;;;;;;4927269;28;20155;-73
2021/05/10 08:23:08;;;;;;;4.75;2.40;;;14.90;99.90;;;;;;4908371;28;20574;-73
2021/05/10 08:25:33;;;;;;;4.10;2.42;;;15.00;99.90;;;;;;4922481;28;20032;-76
2021/05/10 08:27:59;;;;;;;9.43;3.45;;;15.20;99.90;;;;;;4921058;28;20555;-74
2021/05/10 08:30:25;;;;;;;6.15;3.78;;;15.00;99.90;;;;;;4921029;28;20047;-75
2021/05/10 08:32:51;;;;;;;8.48;4.45;;;14.90;99.90;;;;;;4921153;28;20028;-74
2021/05/10 08:35:17;;;;;;;8.38;4.80;;;14.90;99.90;;;;;;4921201;28;20111;-75
2021/05/10 08:37:43;;;;;;;11.27;5.82;;;14.90;99.90;;;;;;4927208;28;20054;-74
2021/05/10 08:40:09;;;;;;;9.23;5.28;;;14.90;99.90;;;;;;4921107;28;20543;-74
2021/05/10 08:42:35;;;;;;;9.35;6.45;;;15.10;99.90;;;;;;4918778;28;20032;-71
2021/05/10 08:45:00;;;;;;;7.18;5.47;;;15.10;99.90;;;;;;4922475;28;20643;-72
2021/05/10 08:47:32;;;;;;;9.52;6.53;;;15.00;99.90;;;;;;4932492;28;20024;-77
2021/05/10 08:50:01;;;;;;;8.80;6.60;;;15.20;99.90;;;;;;4935751;28;20027;-73
2021/05/10 08:52:30;;;;;;;9.77;6.60;;;15.10;99.90;;;;;;4933514;28;20073;-72
2021/05/10 08:55:07;;;;;;;6.88;6.25;;;15.10;99.90;;;;;;4946571;29;20008;-73
2021/05/10 08:57:33;;;;;;;8.32;7.15;;;15.00;99.90;;;;;;5015089;28;20020;-73
2021/05/10 09:00:00;;;;;;;7.65;6.53;;;15.00;99.90;;;;;;4952433;28;20034;-74
2021/05/10 09:02:37;;;;;;;9.85;6.93;;;15.00;99.90;;;;;;4960389;28;20044;-78
2021/05/10 09:05:21;;;;;;;11.25;7.43;;;15.00;99.90;;;;;;4943264;28;20027;-76
2021/05/10 09:08:07;;;;;;;8.77;6.75;;;15.20;99.90;;;;;;4951313;28;20035;-73
2021/05/10 09:10:33;;;;;;;10.52;7.50;;;15.10;99.90;;;;;;4923678;28;20058;-74
2021/05/10 09:12:58;;;;;;;10.90;7.43;;;15.10;99.90;;;;;;4924553;28;20239;-72
2021/05/10 09:15:30;;;;;;;10.00;7.22;;;15.20;99.90;;;;;;4943082;28;20028;-75
2021/05/10 09:18:01;;;;;;;7.00;6.20;;;15.30;99.90;;;;;;4939670;28;20109;-74
2021/05/10 09:20:34;;;;;;;8.02;6.38;;;15.20;99.90;;;;;;4942799;28;20035;-75
2021/05/10 09:23:01;;;;;;;;;;;15.30;99.90;;;;;;4933379;28;20028;-72
2021/05/10 09:25:44;;;;;;;7.38;6.63;;;15.30;99.90;;;;;;4941110;28;19920;-76
2021/05/10 09:28:14;;;;;;;10.27;6.82;;;15.20;99.90;;;;;;4941303;28;20510;-73
2021/05/10 09:30:42;;;;;;;7.45;6.10;;;15.20;99.90;;;;;;4926481;29;20020;-74
2021/05/10 09:33:16;;;;;;;8.80;6.30;;;15.10;99.90;;;;;;4929395;28;20127;-74
2021/05/10 09:35:41;;;;;;;10.55;6.32;;;15.20;99.90;;;;;;4928093;28;20102;-72
2021/05/10 09:38:07;;;;;;;8.20;6.30;;;15.30;99.90;;;;;;4929601;28;20036;-71
2021/05/10 09:40:45;;;;;;;7.50;6.18;;;15.30;99.90;;;;;;4928173;28;20028;-72
2021/05/10 09:43:12;;;;;;;6.97;6.15;;;15.30;99.90;;;;;;4927682;28;20052;-75
2021/05/10 09:45:41;;;;;;;7.07;5.85;;;15.10;99.90;;;;;;4928550;28;20480;-73
2021/05/10 09:48:15;;;;;;;9.50;4.95;;;15.20;99.90;;;;;;4914956;28;20035;-72
2021/05/10 09:50:46;;;;;;;8.93;4.25;;;15.10;99.90;;;;;;4928974;28;20043;-74
2021/05/10 09:53:34;;;;;;;4.32;3.85;;;15.00;99.90;;;;;;4926028;28;20244;-71
2021/05/10 09:56:01;;;;;;;12.98;4.93;;;14.80;99.90;;;;;;4908765;28;20035;-71
2021/05/10 09:58:44;;;;;;;8.85;5.18;;;14.90;99.90;;;;;;4918896;28;20039;-73
2021/05/10 10:01:11;;;;;;;5.95;3.90;;;14.90;99.90;;;;;;4960702;28;20039;-72
2021/05/10 10:03:40;;;;;;;10.77;4.65;;;14.90;99.90;;;;;;4940654;28;20077;-69
2021/05/10 10:06:08;;;;;;;8.05;4.30;;;14.80;99.90;;;;;;4928231;28;20020;-71
2021/05/10 10:08:35;;;;;;;5.90;4.35;;;14.80;99.90;;;;;;4917826;28;20154;-70
2021/05/10 10:11:03;;;;;;;7.40;4.97;;;14.70;99.90;;;;;;4930317;28;20031;-71
2021/05/10 10:13:29;;;;;;;11.13;4.10;;;14.60;99.90;;;;;;4929162;28;20027;-70
2021/05/10 10:15:58;;;;;;;9.57;4.45;;;14.50;99.90;;;;;;4940449;28;20024;-70
2021/05/10 10:18:26;;;;;;;8.07;3.97;;;14.50;99.90;;;;;;4919151;28;20113;-71
2021/05/10 10:20:56;;;;;;;6.00;3.85;;;14.40;99.90;;;;;;4913451;28;20024;-71
2021/05/10 10:23:23;;;;;;;6.63;4.40;;;14.50;99.90;;;;;;4928999;28;20028;-72
2021/05/10 10:25:50;;;;;;;13.80;4.18;;;14.60;99.90;;;;;;4924686;28;20116;-73
2021/05/10 10:28:20;;;;;;;8.25;4.45;;;14.70;99.90;;;;;;4921807;28;20024;-71
2021/05/10 10:30:50;;;;;;;7.53;4.57;;;15.00;99.90;;;;;;4927177;28;20439;-72
2021/05/10 10:33:39;;;;;;;6.47;5.50;;;15.00;99.90;;;;;;4927639;28;20032;-72
2021/05/10 10:36:15;;;;;;;7.03;4.95;;;15.30;99.90;;;;;;4928166;28;20109;-72
2021/05/10 10:38:40;;;;;;;8.15;5.00;;;15.30;99.90;;;;;;4928202;28;20027;-73
2021/05/10 10:41:25;;;;;;;5.90;5.40;;;15.30;99.90;;;;;;4911366;28;20099;-73
2021/05/10 10:43:51;;;;;;;15.02;5.40;;;15.70;99.90;;;;;;4920522;28;20055;-72
2021/05/10 10:46:26;;;;;;;10.25;4.43;;;15.80;99.90;;;;;;4913992;28;20538;-71
2021/05/10 10:48:54;;;;;;;11.73;5.68;;;15.60;99.90;;;;;;4927738;28;20094;-72
2021/05/10 10:51:21;;;;;;;6.70;4.75;;;16.00;99.90;;;;;;4927355;28;20459;-73
2021/05/10 10:53:54;;;;;;;7.07;5.50;;;16.20;99.90;;;;;;4928581;28;20497;-73
2021/05/10 10:56:58;;;;;;;5.93;5.07;;;16.30;99.90;;;;;;4925540;28;20035;-72
2021/05/10 10:59:26;;;;;;;6.43;4.75;;;16.60;99.90;;;;;;4969183;28;20577;-72
2021/05/10 11:01:52;;;;;;;11.68;5.78;;;16.30;99.90;;;;;;4930173;28;20241;-73
2021/05/10 11:04:29;;;;;;;9.50;5.57;;;16.50;99.90;;;;;;4923397;28;20070;-71
2021/05/10 11:06:56;;;;;;;8.73;6.00;;;16.50;99.90;;;;;;4918410;28;20108;-73
2021/05/10 11:09:46;;;;;;;11.13;5.78;;;16.90;99.90;;;;;;4932375;28;20050;-71
2021/05/10 11:12:45;;;;;;;11.07;6.35;;;17.10;99.90;;;;;;4934550;28;20059;-74
2021/05/10 11:15:11;;;;;;;11.30;6.53;;;17.10;99.90;;;;;;4940700;28;20031;-73
2021/05/10 11:17:53;;;;;;;11.93;6.20;;;17.10;99.90;;;;;;4933888;28;20054;-71
2021/05/10 11:20:18;;;;;;;5.90;4.35;;;17.10;99.90;;;;;;4929687;28;20480;-73
2021/05/10 11:22:47;;;;;;;10.93;5.60;;;17.30;99.90;;;;;;4935335;28;20034;-74
2021/05/10 11:25:36;;;;;;;9.73;4.75;;;17.50;99.90;;;;;;4932221;28;20020;-73
2021/05/10 11:28:30;;;;;;;10.10;4.53;;;17.60;99.90;;;;;;4932995;28;20039;-72
2021/05/10 11:30:57;;;;;;;12.23;5.07;;;17.50;99.90;;;;;;4922743;28;20051;-73
2021/05/10 11:33:54;;;;;;;12.30;4.35;;;17.70;99.90;;;;;;4932620;28;20034;-71
2021/05/10 11:36:34;;;;;;;11.05;4.55;;;17.40;99.90;;;;;;4933874;28;20083;-73
2021/05/10 11:39:04;;;;;;;9.90;4.22;;;17.60;99.90;;;;;;4927595;28;20059;-74
2021/05/10 11:41:39;;;;;;;11.75;4.70;;;17.90;99.90;;;;;;4928511;28;20569;-72
2021/05/10 11:44:07;;;;;;;9.93;5.38;;;17.90;99.90;;;;;;4934338;28;20415;-72
2021/05/10 11:46:41;;;;;;;9.80;5.40;;;17.60;99.90;;;;;;4936317;28;20059;-72
2021/05/10 11:49:21;;;;;;;9.13;6.50;;;17.50;99.90;;;;;;4934683;28;20032;-73
2021/05/10 11:51:47;;;;;;;12.63;6.88;;;17.20;99.90;;;;;;4933122;28;20495;-72
2021/05/10 11:54:13;;;;;;;9.50;6.43;;;17.10;99.90;;;;;;4932073;28;20526;-75
2021/05/10 11:56:43;;;;;;;11.45;6.00;;;17.10;99.90;;;;;;4931600;28;20032;-72
2021/05/10 12:02:27;;;;;;;9.38;5.30;;;17.30;99.90;;;;;;4931380;28;20043;-75
2021/05/10 12:04:57;;;;;;;7.45;5.28;;;17.20;99.90;;;;;;4934758;28;20027;-72
2021/05/10 12:07:26;;;;;;;7.68;4.60;;;17.10;99.90;;;;;;4929658;28;20019;-74
2021/05/10 12:10:03;;;;;;;8.27;4.32;;;17.10;99.90;;;;;;4928702;28;20035;-73
2021/05/10 12:12:41;;;;;;;9.60;4.60;;;17.00;99.90;;;;;;4927650;28;20016;-74
2021/05/10 12:15:27;;;;;;;12.73;4.10;;;17.20;99.90;;;;;;4940619;28;20266;-76
2021/05/10 12:17:57;;;;;;;5.88;3.47;;;17.30;99.90;;;;;;4930463;28;20083;-71
2021/05/10 12:20:30;;;;;;;8.32;3.03;;;17.50;99.90;;;;;;4940395;28;20020;-76
2021/05/10 12:23:03;;;;;;;8.38;3.38;;;17.60;99.90;;;;;;4954989;28;20024;-72
2021/05/10 12:25:39;;;;;;;9.50;2.92;;;17.70;99.90;;;;;;4952297;28;20043;-75
2021/05/10 12:28:09;;;;;;;11.38;3.15;;;17.70;99.90;;;;;;4946978;28;20042;-76
2021/05/10 12:30:37;;;;;;;9.13;2.92;;;17.60;99.90;;;;;;4944088;28;20023;-75
2021/05/10 12:33:07;;;;;;;9.77;3.30;;;17.60;99.90;;;;;;4947798;28;20035;-74
2021/05/10 12:35:46;;;;;;;5.45;3.15;;;17.50;99.90;;;;;;4941250;28;20225;-75
2021/05/10 12:38:23;;;;;;;10.60;3.60;;;17.60;99.90;;;;;;4935860;29;20032;-75
2021/05/10 12:40:52;;;;;;;9.43;3.20;;;17.70;99.90;;;;;;4948034;28;20323;-76
2021/05/10 12:43:21;;;;;;;10.13;2.95;;;17.70;99.90;;;;;;4945773;28;20062;-74
2021/05/10 12:46:03;;;;;;;5.63;2.65;;;17.90;99.90;;;;;;4934412;28;20016;-74
2021/05/10 12:48:36;;;;;;;13.10;3.38;;;18.00;99.90;;;;;;4935471;28;20051;-74
2021/05/10 12:51:15;;;;;;;7.57;2.70;;;18.10;99.90;;;;;;4989177;28;20056;-75
2021/05/10 12:53:43;;;;;;;6.50;2.90;;;18.30;99.90;;;;;;4945373;28;20027;-74
2021/05/10 12:56:13;;;;;;;11.65;2.97;;;18.40;99.90;;;;;;4930817;28;20031;-73
2021/05/10 12:58:48;;;;;;;7.95;2.65;;;18.80;99.90;;;;;;4935004;28;20020;-72
2021/05/10 13:01:15;;;;;;;5.20;2.40;;;19.00;99.90;;;;;;4937741;28;20518;-75
2021/05/10 13:03:44;;;;;;;8.52;2.90;;;19.10;99.90;;;;;;4924022;28;20410;-73